sensor_id;sensor_type;location;lat;lon;timestamp;pressure;altitude;pressure_sealevel;temperature
12061;BMP180;6091;51.432;6.880;2022-08-21T00:01:52;100991.00;;;31.10
12061;BMP180;6091;51.432;6.880;2022-08-21T00:04:20;100989.00;;;31.10
12061;BMP180;6091;51.432;6.880;2022-08-21T00:06:53;100984.00;;;31.10
12061;BMP180;6091;51.432;6.880;2022-08-21T00:09:23;100972.00;;;31.10
12061;BMP180;6091;51.432;6.880;2022-08-21T00:11:50;100978.00;;;31.10
12061;BMP180;6091;51.432;6.880;2022-08-21T00:14:17;100974.00;;;31.10
12061;BMP180;6091;51.432;6.880;2022-08-21T00:16:44;100977.00;;;31.10
12061;BMP180;6091;51.432;6.880;2022-08-21T00:19:11;100973.00;;;31.10
12061;BMP180;6091;51.432;6.880;2022-08-21T00:21:39;100967.00;;;31.00
12061;BMP180;6091;51.432;6.880;2022-08-21T00:24:10;100965.00;;;31.00
12061;BMP180;6091;51.432;6.880;2022-08-21T00:26:37;100959.00;;;31.00
12061;BMP180;6091;51.432;6.880;2022-08-21T00:29:04;100952.00;;;31.00
12061;BMP180;6091;51.432;6.880;2022-08-21T00:31:31;100950.00;;;31.00
12061;BMP180;6091;51.432;6.880;2022-08-21T00:33:58;100956.00;;;31.00
12061;BMP180;6091;51.432;6.880;2022-08-21T00:36:28;100949.00;;;31.00
12061;BMP180;6091;51.432;6.880;2022-08-21T00:38:57;100955.00;;;31.00
12061;BMP180;6091;51.432;6.880;2022-08-21T00:41:25;100955.00;;;31.00
12061;BMP180;6091;51.432;6.880;2022-08-21T00:44:08;100954.00;;;31.00
12061;BMP180;6091;51.432;6.880;2022-08-21T00:46:37;100954.00;;;31.00
12061;BMP180;6091;51.432;6.880;2022-08-21T00:49:06;100959.00;;;30.90
12061;BMP180;6091;51.432;6.880;2022-08-21T00:51:58;100961.00;;;30.90
12061;BMP180;6091;51.432;6.880;2022-08-21T00:54:29;100959.00;;;30.90
12061;BMP180;6091;51.432;6.880;2022-08-21T00:57:05;100953.00;;;30.90
12061;BMP180;6091;51.432;6.880;2022-08-21T00:59:37;100952.00;;;30.90
12061;BMP180;6091;51.432;6.880;2022-08-21T01:02:07;100944.00;;;30.90
12061;BMP180;6091;51.432;6.880;2022-08-21T01:04:37;100948.00;;;30.90
12061;BMP180;6091;51.432;6.880;2022-08-21T01:07:04;100952.00;;;30.90
12061;BMP180;6091;51.432;6.880;2022-08-21T01:09:32;100949.00;;;30.90
12061;BMP180;6091;51.432;6.880;2022-08-21T01:11:59;100951.00;;;30.90
12061;BMP180;6091;51.432;6.880;2022-08-21T01:14:27;100949.00;;;30.90
12061;BMP180;6091;51.432;6.880;2022-08-21T01:16:56;100947.00;;;30.90
12061;BMP180;6091;51.432;6.880;2022-08-21T01:19:28;100953.00;;;30.90
12061;BMP180;6091;51.432;6.880;2022-08-21T01:21:56;100955.00;;;30.90
12061;BMP180;6091;51.432;6.880;2022-08-21T01:24:23;100964.00;;;30.90
12061;BMP180;6091;51.432;6.880;2022-08-21T01:26:51;100957.00;;;30.90
12061;BMP180;6091;51.432;6.880;2022-08-21T01:29:52;100961.00;;;30.80
12061;BMP180;6091;51.432;6.880;2022-08-21T01:32:21;100962.00;;;30.80
12061;BMP180;6091;51.432;6.880;2022-08-21T01:34:50;100958.00;;;30.90
12061;BMP180;6091;51.432;6.880;2022-08-21T01:37:20;100956.00;;;30.80
12061;BMP180;6091;51.432;6.880;2022-08-21T01:39:48;100958.00;;;30.80
12061;BMP180;6091;51.432;6.880;2022-08-21T01:42:15;100961.00;;;30.80
12061;BMP180;6091;51.432;6.880;2022-08-21T01:44:43;100961.00;;;30.80
12061;BMP180;6091;51.432;6.880;2022-08-21T01:47:14;100964.00;;;30.80
12061;BMP180;6091;51.432;6.880;2022-08-21T01:49:45;100960.00;;;30.80
12061;BMP180;6091;51.432;6.880;2022-08-21T01:52:12;100947.00;;;30.80
12061;BMP180;6091;51.432;6.880;2022-08-21T01:54:41;100956.00;;;30.80
12061;BMP180;6091;51.432;6.880;2022-08-21T01:57:09;100952.00;;;30.80
12061;BMP180;6091;51.432;6.880;2022-08-21T01:59:37;100945.00;;;30.80
12061;BMP180;6091;51.432;6.880;2022-08-21T02:02:04;100944.00;;;30.80
12061;BMP180;6091;51.432;6.880;2022-08-21T02:04:32;100949.00;;;30.80
12061;BMP180;6091;51.432;6.880;2022-08-21T02:07:00;100946.00;;;30.80
12061;BMP180;6091;51.432;6.880;2022-08-21T02:09:28;100938.00;;;30.80
12061;BMP180;6091;51.432;6.880;2022-08-21T02:11:56;100947.00;;;30.80
12061;BMP180;6091;51.432;6.880;2022-08-21T02:14:23;100948.00;;;30.80
12061;BMP180;6091;51.432;6.880;2022-08-21T02:16:58;100948.00;;;30.80
12061;BMP180;6091;51.432;6.880;2022-08-21T02:19:31;100940.00;;;30.70
12061;BMP180;6091;51.432;6.880;2022-08-21T02:22:08;100945.00;;;30.70
12061;BMP180;6091;51.432;6.880;2022-08-21T02:24:37;100935.00;;;30.70
12061;BMP180;6091;51.432;6.880;2022-08-21T02:27:22;100935.00;;;30.70
12061;BMP180;6091;51.432;6.880;2022-08-21T02:29:56;100927.00;;;30.70
12061;BMP180;6091;51.432;6.880;2022-08-21T02:32:24;100939.00;;;30.70
12061;BMP180;6091;51.432;6.880;2022-08-21T02:34:53;100934.00;;;30.70
12061;BMP180;6091;51.432;6.880;2022-08-21T02:37:20;100935.00;;;30.70
12061;BMP180;6091;51.432;6.880;2022-08-21T02:39:47;100935.00;;;30.70
12061;BMP180;6091;51.432;6.880;2022-08-21T02:42:14;100932.00;;;30.70
12061;BMP180;6091;51.432;6.880;2022-08-21T02:44:42;100933.00;;;30.70
12061;BMP180;6091;51.432;6.880;2022-08-21T02:47:08;100934.00;;;30.60
12061;BMP180;6091;51.432;6.880;2022-08-21T02:49:35;100937.00;;;30.70
12061;BMP180;6091;51.432;6.880;2022-08-21T02:52:03;100933.00;;;30.70
12061;BMP180;6091;51.432;6.880;2022-08-21T02:54:32;100936.00;;;30.70
12061;BMP180;6091;51.432;6.880;2022-08-21T02:56:59;100936.00;;;30.70
12061;BMP180;6091;51.432;6.880;2022-08-21T02:59:26;100939.00;;;30.70
12061;BMP180;6091;51.432;6.880;2022-08-21T03:01:53;100935.00;;;30.70
12061;BMP180;6091;51.432;6.880;2022-08-21T03:04:22;100935.00;;;30.60
12061;BMP180;6091;51.432;6.880;2022-08-21T03:06:49;100941.00;;;30.60
12061;BMP180;6091;51.432;6.880;2022-08-21T03:09:16;100935.00;;;30.60
12061;BMP180;6091;51.432;6.880;2022-08-21T03:11:43;100937.00;;;30.60
12061;BMP180;6091;51.432;6.880;2022-08-21T03:14:10;100936.00;;;30.60
12061;BMP180;6091;51.432;6.880;2022-08-21T03:16:37;100932.00;;;30.60
12061;BMP180;6091;51.432;6.880;2022-08-21T03:19:04;100930.00;;;30.60
12061;BMP180;6091;51.432;6.880;2022-08-21T03:21:31;100928.00;;;30.60
12061;BMP180;6091;51.432;6.880;2022-08-21T03:23:58;100932.00;;;30.60
12061;BMP180;6091;51.432;6.880;2022-08-21T03:26:30;100932.00;;;30.60
12061;BMP180;6091;51.432;6.880;2022-08-21T03:28:58;100928.00;;;30.60
12061;BMP180;6091;51.432;6.880;2022-08-21T03:31:25;100934.00;;;30.60
12061;BMP180;6091;51.432;6.880;2022-08-21T03:33:58;100929.00;;;30.60
12061;BMP180;6091;51.432;6.880;2022-08-21T03:36:25;100929.00;;;30.60
12061;BMP180;6091;51.432;6.880;2022-08-21T03:38:53;100933.00;;;30.60
12061;BMP180;6091;51.432;6.880;2022-08-21T03:41:20;100931.00;;;30.60
12061;BMP180;6091;51.432;6.880;2022-08-21T03:43:47;100930.00;;;30.50
12061;BMP180;6091;51.432;6.880;2022-08-21T03:46:14;100929.00;;;30.50
12061;BMP180;6091;51.432;6.880;2022-08-21T03:48:41;100933.00;;;30.50
12061;BMP180;6091;51.432;6.880;2022-08-21T03:51:08;100928.00;;;30.50
12061;BMP180;6091;51.432;6.880;2022-08-21T03:53:36;100935.00;;;30.50
12061;BMP180;6091;51.432;6.880;2022-08-21T03:56:04;100930.00;;;30.50
12061;BMP180;6091;51.432;6.880;2022-08-21T03:58:32;100931.00;;;30.50
12061;BMP180;6091;51.432;6.880;2022-08-21T04:01:02;100933.00;;;30.50
12061;BMP180;6091;51.432;6.880;2022-08-21T04:03:30;100916.00;;;30.50
12061;BMP180;6091;51.432;6.880;2022-08-21T04:05:57;100937.00;;;30.50
12061;BMP180;6091;51.432;6.880;2022-08-21T04:08:24;100940.00;;;30.50
12061;BMP180;6091;51.432;6.880;2022-08-21T04:10:55;100941.00;;;30.50
12061;BMP180;6091;51.432;6.880;2022-08-21T04:13:24;100947.00;;;30.50
12061;BMP180;6091;51.432;6.880;2022-08-21T04:15:51;100948.00;;;30.50
12061;BMP180;6091;51.432;6.880;2022-08-21T04:18:18;100952.00;;;30.50
12061;BMP180;6091;51.432;6.880;2022-08-21T04:20:50;100948.00;;;30.50
12061;BMP180;6091;51.432;6.880;2022-08-21T04:23:20;100951.00;;;30.50
12061;BMP180;6091;51.432;6.880;2022-08-21T04:25:52;100939.00;;;30.40
12061;BMP180;6091;51.432;6.880;2022-08-21T04:28:21;100946.00;;;30.50
12061;BMP180;6091;51.432;6.880;2022-08-21T04:30:50;100962.00;;;30.50
12061;BMP180;6091;51.432;6.880;2022-08-21T04:33:20;100950.00;;;30.50
12061;BMP180;6091;51.432;6.880;2022-08-21T04:35:49;100954.00;;;30.50
12061;BMP180;6091;51.432;6.880;2022-08-21T04:38:17;100958.00;;;30.50
12061;BMP180;6091;51.432;6.880;2022-08-21T04:40:44;100957.00;;;30.50
12061;BMP180;6091;51.432;6.880;2022-08-21T04:43:13;100954.00;;;30.50
12061;BMP180;6091;51.432;6.880;2022-08-21T04:45:47;100955.00;;;30.50
12061;BMP180;6091;51.432;6.880;2022-08-21T04:48:17;100957.00;;;30.40
12061;BMP180;6091;51.432;6.880;2022-08-21T04:50:57;100948.00;;;30.40
12061;BMP180;6091;51.432;6.880;2022-08-21T04:53:37;100948.00;;;30.40
12061;BMP180;6091;51.432;6.880;2022-08-21T04:56:29;100961.00;;;30.40
12061;BMP180;6091;51.432;6.880;2022-08-21T04:59:02;100961.00;;;30.40
12061;BMP180;6091;51.432;6.880;2022-08-21T05:01:35;100963.00;;;30.40
12061;BMP180;6091;51.432;6.880;2022-08-21T05:04:04;100958.00;;;30.40
12061;BMP180;6091;51.432;6.880;2022-08-21T05:06:38;100953.00;;;30.40
12061;BMP180;6091;51.432;6.880;2022-08-21T05:09:10;100953.00;;;30.40
12061;BMP180;6091;51.432;6.880;2022-08-21T05:11:39;100951.00;;;30.40
12061;BMP180;6091;51.432;6.880;2022-08-21T05:14:07;100958.00;;;30.40
12061;BMP180;6091;51.432;6.880;2022-08-21T05:16:34;100960.00;;;30.40
12061;BMP180;6091;51.432;6.880;2022-08-21T05:19:05;100961.00;;;30.40
12061;BMP180;6091;51.432;6.880;2022-08-21T05:21:35;100964.00;;;30.40
12061;BMP180;6091;51.432;6.880;2022-08-21T05:24:02;100956.00;;;30.40
12061;BMP180;6091;51.432;6.880;2022-08-21T05:26:32;100958.00;;;30.40
12061;BMP180;6091;51.432;6.880;2022-08-21T05:29:11;100960.00;;;30.40
12061;BMP180;6091;51.432;6.880;2022-08-21T05:31:38;100961.00;;;30.40
12061;BMP180;6091;51.432;6.880;2022-08-21T05:34:05;100964.00;;;30.40
12061;BMP180;6091;51.432;6.880;2022-08-21T05:36:33;100959.00;;;30.40
12061;BMP180;6091;51.432;6.880;2022-08-21T05:39:01;100963.00;;;30.40
12061;BMP180;6091;51.432;6.880;2022-08-21T05:41:28;100959.00;;;30.40
12061;BMP180;6091;51.432;6.880;2022-08-21T05:43:55;100960.00;;;30.40
12061;BMP180;6091;51.432;6.880;2022-08-21T05:46:22;100970.00;;;30.40
12061;BMP180;6091;51.432;6.880;2022-08-21T05:48:50;100963.00;;;30.40
12061;BMP180;6091;51.432;6.880;2022-08-21T05:51:17;100970.00;;;30.40
12061;BMP180;6091;51.432;6.880;2022-08-21T05:53:45;100970.00;;;30.40
12061;BMP180;6091;51.432;6.880;2022-08-21T05:56:13;100973.00;;;30.40
12061;BMP180;6091;51.432;6.880;2022-08-21T05:58:41;100965.00;;;30.40
12061;BMP180;6091;51.432;6.880;2022-08-21T06:01:08;100970.00;;;30.40
12061;BMP180;6091;51.432;6.880;2022-08-21T06:03:39;100960.00;;;30.40
12061;BMP180;6091;51.432;6.880;2022-08-21T06:06:07;100956.00;;;30.40
12061;BMP180;6091;51.432;6.880;2022-08-21T06:08:34;100968.00;;;30.40
12061;BMP180;6091;51.432;6.880;2022-08-21T06:11:03;100956.00;;;30.40
12061;BMP180;6091;51.432;6.880;2022-08-21T06:13:31;100962.00;;;30.40
12061;BMP180;6091;51.432;6.880;2022-08-21T06:16:14;100964.00;;;30.40
12061;BMP180;6091;51.432;6.880;2022-08-21T06:18:44;100969.00;;;30.40
12061;BMP180;6091;51.432;6.880;2022-08-21T06:21:12;100966.00;;;30.40
12061;BMP180;6091;51.432;6.880;2022-08-21T06:23:41;100963.00;;;30.40
12061;BMP180;6091;51.432;6.880;2022-08-21T06:26:10;100965.00;;;30.40
12061;BMP180;6091;51.432;6.880;2022-08-21T06:28:38;100967.00;;;30.40
12061;BMP180;6091;51.432;6.880;2022-08-21T06:31:18;100965.00;;;30.40
12061;BMP180;6091;51.432;6.880;2022-08-21T06:33:46;100964.00;;;30.40
12061;BMP180;6091;51.432;6.880;2022-08-21T06:36:15;100964.00;;;30.40
12061;BMP180;6091;51.432;6.880;2022-08-21T06:38:45;100965.00;;;30.40
12061;BMP180;6091;51.432;6.880;2022-08-21T06:41:19;100968.00;;;30.40
12061;BMP180;6091;51.432;6.880;2022-08-21T06:43:54;100972.00;;;30.40
12061;BMP180;6091;51.432;6.880;2022-08-21T06:46:23;100971.00;;;30.40
12061;BMP180;6091;51.432;6.880;2022-08-21T06:48:51;100969.00;;;30.40
12061;BMP180;6091;51.432;6.880;2022-08-21T06:51:18;100968.00;;;30.50
12061;BMP180;6091;51.432;6.880;2022-08-21T06:53:45;100966.00;;;30.50
12061;BMP180;6091;51.432;6.880;2022-08-21T06:56:15;100972.00;;;30.50
12061;BMP180;6091;51.432;6.880;2022-08-21T06:58:43;100970.00;;;30.50
12061;BMP180;6091;51.432;6.880;2022-08-21T07:01:10;100964.00;;;30.40
12061;BMP180;6091;51.432;6.880;2022-08-21T07:03:42;100965.00;;;30.40
12061;BMP180;6091;51.432;6.880;2022-08-21T07:06:11;100957.00;;;30.30
12061;BMP180;6091;51.432;6.880;2022-08-21T07:08:38;100973.00;;;30.30
12061;BMP180;6091;51.432;6.880;2022-08-21T07:11:19;100967.00;;;30.20
12061;BMP180;6091;51.432;6.880;2022-08-21T07:13:47;100959.00;;;30.20
12061;BMP180;6091;51.432;6.880;2022-08-21T07:16:15;100960.00;;;30.20
12061;BMP180;6091;51.432;6.880;2022-08-21T07:18:41;100972.00;;;30.20
12061;BMP180;6091;51.432;6.880;2022-08-21T07:21:09;100963.00;;;30.20
12061;BMP180;6091;51.432;6.880;2022-08-21T07:23:47;100960.00;;;30.20
12061;BMP180;6091;51.432;6.880;2022-08-21T07:26:18;100959.00;;;30.10
12061;BMP180;6091;51.432;6.880;2022-08-21T07:28:48;100964.00;;;29.90
12061;BMP180;6091;51.432;6.880;2022-08-21T07:31:18;100961.00;;;29.80
12061;BMP180;6091;51.432;6.880;2022-08-21T07:33:45;100954.00;;;29.80
12061;BMP180;6091;51.432;6.880;2022-08-21T07:36:13;100951.00;;;29.70
12061;BMP180;6091;51.432;6.880;2022-08-21T07:38:41;100950.00;;;29.60
12061;BMP180;6091;51.432;6.880;2022-08-21T07:41:19;100958.00;;;29.60
12061;BMP180;6091;51.432;6.880;2022-08-21T07:43:46;100955.00;;;29.40
12061;BMP180;6091;51.432;6.880;2022-08-21T07:46:14;100953.00;;;29.50
12061;BMP180;6091;51.432;6.880;2022-08-21T07:48:41;100964.00;;;29.50
12061;BMP180;6091;51.432;6.880;2022-08-21T07:51:13;100960.00;;;29.50
12061;BMP180;6091;51.432;6.880;2022-08-21T07:53:41;100951.00;;;29.40
12061;BMP180;6091;51.432;6.880;2022-08-21T07:56:09;100964.00;;;29.40
12061;BMP180;6091;51.432;6.880;2022-08-21T07:58:37;100958.00;;;29.40
12061;BMP180;6091;51.432;6.880;2022-08-21T08:01:06;100956.00;;;29.30
12061;BMP180;6091;51.432;6.880;2022-08-21T08:03:34;100953.00;;;29.30
12061;BMP180;6091;51.432;6.880;2022-08-21T08:06:04;100956.00;;;29.30
12061;BMP180;6091;51.432;6.880;2022-08-21T08:08:33;100945.00;;;29.30
12061;BMP180;6091;51.432;6.880;2022-08-21T08:11:01;100950.00;;;29.30
12061;BMP180;6091;51.432;6.880;2022-08-21T08:13:28;100938.00;;;29.30
12061;BMP180;6091;51.432;6.880;2022-08-21T08:15:55;100947.00;;;29.30
12061;BMP180;6091;51.432;6.880;2022-08-21T08:18:23;100943.00;;;29.20
12061;BMP180;6091;51.432;6.880;2022-08-21T08:20:50;100950.00;;;29.20
12061;BMP180;6091;51.432;6.880;2022-08-21T08:23:17;100943.00;;;29.20
12061;BMP180;6091;51.432;6.880;2022-08-21T08:25:44;100941.00;;;29.10
12061;BMP180;6091;51.432;6.880;2022-08-21T08:28:11;100936.00;;;29.10
12061;BMP180;6091;51.432;6.880;2022-08-21T08:30:44;100952.00;;;29.10
12061;BMP180;6091;51.432;6.880;2022-08-21T08:33:13;100945.00;;;29.20
12061;BMP180;6091;51.432;6.880;2022-08-21T08:35:45;100942.00;;;29.20
12061;BMP180;6091;51.432;6.880;2022-08-21T08:38:16;100951.00;;;29.20
12061;BMP180;6091;51.432;6.880;2022-08-21T08:41:12;100945.00;;;29.20
12061;BMP180;6091;51.432;6.880;2022-08-21T08:43:51;100938.00;;;29.20
12061;BMP180;6091;51.432;6.880;2022-08-21T08:46:38;100945.00;;;29.20
12061;BMP180;6091;51.432;6.880;2022-08-21T08:52:27;100938.00;;;29.30
12061;BMP180;6091;51.432;6.880;2022-08-21T08:55:21;100934.00;;;29.40
12061;BMP180;6091;51.432;6.880;2022-08-21T08:57:54;100927.00;;;29.40
12061;BMP180;6091;51.432;6.880;2022-08-21T09:00:25;100934.00;;;29.40
12061;BMP180;6091;51.432;6.880;2022-08-21T09:02:56;100934.00;;;29.50
12061;BMP180;6091;51.432;6.880;2022-08-21T09:06:16;100939.00;;;29.40
12061;BMP180;6091;51.432;6.880;2022-08-21T09:12:12;100921.00;;;29.50
12061;BMP180;6091;51.432;6.880;2022-08-21T09:15:03;100929.00;;;29.50
12061;BMP180;6091;51.432;6.880;2022-08-21T09:17:59;100923.00;;;29.50
12061;BMP180;6091;51.432;6.880;2022-08-21T09:20:47;100920.00;;;29.50
12061;BMP180;6091;51.432;6.880;2022-08-21T09:26:15;100923.00;;;29.50
12061;BMP180;6091;51.432;6.880;2022-08-21T09:28:44;100922.00;;;29.50
12061;BMP180;6091;51.432;6.880;2022-08-21T09:31:34;100919.00;;;29.50
12061;BMP180;6091;51.432;6.880;2022-08-21T09:34:11;100922.00;;;29.40
12061;BMP180;6091;51.432;6.880;2022-08-21T09:36:49;100907.00;;;29.40
12061;BMP180;6091;51.432;6.880;2022-08-21T09:39:32;100915.00;;;29.40
12061;BMP180;6091;51.432;6.880;2022-08-21T09:42:09;100915.00;;;29.40
12061;BMP180;6091;51.432;6.880;2022-08-21T09:44:41;100916.00;;;29.40
12061;BMP180;6091;51.432;6.880;2022-08-21T09:47:11;100909.00;;;29.40
12061;BMP180;6091;51.432;6.880;2022-08-21T09:49:43;100898.00;;;29.40
12061;BMP180;6091;51.432;6.880;2022-08-21T09:52:21;100918.00;;;29.50
12061;BMP180;6091;51.432;6.880;2022-08-21T09:54:54;100911.00;;;29.50
12061;BMP180;6091;51.432;6.880;2022-08-21T09:57:28;100902.00;;;29.60
12061;BMP180;6091;51.432;6.880;2022-08-21T10:00:26;100901.00;;;29.40
12061;BMP180;6091;51.432;6.880;2022-08-21T10:02:53;100905.00;;;29.70
12061;BMP180;6091;51.432;6.880;2022-08-21T10:05:26;100908.00;;;29.70
12061;BMP180;6091;51.432;6.880;2022-08-21T10:07:54;100904.00;;;29.70
12061;BMP180;6091;51.432;6.880;2022-08-21T10:10:30;100906.00;;;29.80
12061;BMP180;6091;51.432;6.880;2022-08-21T10:40:27;100892.00;;;30.30
12061;BMP180;6091;51.432;6.880;2022-08-21T10:43:36;100882.00;;;30.40
12061;BMP180;6091;51.432;6.880;2022-08-21T10:46:13;100894.00;;;30.50
12061;BMP180;6091;51.432;6.880;2022-08-21T10:49:29;100895.00;;;30.60
12061;BMP180;6091;51.432;6.880;2022-08-21T10:55:26;100888.00;;;30.80
12061;BMP180;6091;51.432;6.880;2022-08-21T10:58:05;100886.00;;;30.90
12061;BMP180;6091;51.432;6.880;2022-08-21T11:00:55;100892.00;;;31.00
12061;BMP180;6091;51.432;6.880;2022-08-21T11:03:44;100887.00;;;31.10
12061;BMP180;6091;51.432;6.880;2022-08-21T11:06:25;100892.00;;;31.20
12061;BMP180;6091;51.432;6.880;2022-08-21T11:09:13;100892.00;;;31.30
12061;BMP180;6091;51.432;6.880;2022-08-21T11:12:05;100902.00;;;31.50
12061;BMP180;6091;51.432;6.880;2022-08-21T11:18:22;100905.00;;;31.70
12061;BMP180;6091;51.432;6.880;2022-08-21T11:21:06;100893.00;;;31.90
12061;BMP180;6091;51.432;6.880;2022-08-21T11:29:40;100894.00;;;32.30
12061;BMP180;6091;51.432;6.880;2022-08-21T11:32:43;100896.00;;;32.60
12061;BMP180;6091;51.432;6.880;2022-08-21T11:35:54;100900.00;;;32.90
12061;BMP180;6091;51.432;6.880;2022-08-21T11:41:23;100897.00;;;33.40
12061;BMP180;6091;51.432;6.880;2022-08-21T11:50:15;100904.00;;;34.20
12061;BMP180;6091;51.432;6.880;2022-08-21T11:53:29;100900.00;;;34.40
12061;BMP180;6091;51.432;6.880;2022-08-21T11:56:13;100906.00;;;34.60
12061;BMP180;6091;51.432;6.880;2022-08-21T11:59:07;100901.00;;;34.80
12061;BMP180;6091;51.432;6.880;2022-08-21T12:01:45;100902.00;;;34.90
12061;BMP180;6091;51.432;6.880;2022-08-21T12:04:32;100900.00;;;34.90
12061;BMP180;6091;51.432;6.880;2022-08-21T12:10:14;100895.00;;;35.10
12061;BMP180;6091;51.432;6.880;2022-08-21T12:12:44;100902.00;;;35.20
12061;BMP180;6091;51.432;6.880;2022-08-21T12:15:24;100903.00;;;35.30
12061;BMP180;6091;51.432;6.880;2022-08-21T12:18:03;100898.00;;;35.40
12061;BMP180;6091;51.432;6.880;2022-08-21T12:20:43;100893.00;;;35.40
12061;BMP180;6091;51.432;6.880;2022-08-21T12:23:57;100893.00;;;35.50
12061;BMP180;6091;51.432;6.880;2022-08-21T12:26:51;100896.00;;;35.50
12061;BMP180;6091;51.432;6.880;2022-08-21T12:29:37;100897.00;;;35.60
12061;BMP180;6091;51.432;6.880;2022-08-21T12:34:47;100892.00;;;35.80
12061;BMP180;6091;51.432;6.880;2022-08-21T12:37:40;100886.00;;;35.80
12061;BMP180;6091;51.432;6.880;2022-08-21T12:40:25;100887.00;;;35.90
12061;BMP180;6091;51.432;6.880;2022-08-21T12:42:55;100882.00;;;35.80
12061;BMP180;6091;51.432;6.880;2022-08-21T12:45:33;100881.00;;;35.80
12061;BMP180;6091;51.432;6.880;2022-08-21T12:53:50;100893.00;;;36.00
12061;BMP180;6091;51.432;6.880;2022-08-21T12:56:28;100883.00;;;36.10
12061;BMP180;6091;51.432;6.880;2022-08-21T12:59:11;100894.00;;;36.30
12061;BMP180;6091;51.432;6.880;2022-08-21T13:01:48;100885.00;;;36.40
12061;BMP180;6091;51.432;6.880;2022-08-21T13:04:21;100899.00;;;36.50
12061;BMP180;6091;51.432;6.880;2022-08-21T13:06:54;100889.00;;;36.50
12061;BMP180;6091;51.432;6.880;2022-08-21T13:09:29;100883.00;;;36.50
12061;BMP180;6091;51.432;6.880;2022-08-21T13:11:58;100878.00;;;36.40
12061;BMP180;6091;51.432;6.880;2022-08-21T13:14:36;100879.00;;;36.40
12061;BMP180;6091;51.432;6.880;2022-08-21T13:17:20;100884.00;;;36.20
12061;BMP180;6091;51.432;6.880;2022-08-21T13:20:02;100879.00;;;36.10
12061;BMP180;6091;51.432;6.880;2022-08-21T13:22:30;100886.00;;;36.00
12061;BMP180;6091;51.432;6.880;2022-08-21T13:25:02;100877.00;;;35.80
12061;BMP180;6091;51.432;6.880;2022-08-21T13:27:33;100877.00;;;35.70
12061;BMP180;6091;51.432;6.880;2022-08-21T13:30:13;100869.00;;;35.50
12061;BMP180;6091;51.432;6.880;2022-08-21T13:32:45;100873.00;;;35.40
12061;BMP180;6091;51.432;6.880;2022-08-21T13:35:26;100874.00;;;35.20
12061;BMP180;6091;51.432;6.880;2022-08-21T13:37:55;100863.00;;;35.10
12061;BMP180;6091;51.432;6.880;2022-08-21T13:40:31;100865.00;;;34.90
12061;BMP180;6091;51.432;6.880;2022-08-21T13:43:03;100860.00;;;34.80
12061;BMP180;6091;51.432;6.880;2022-08-21T13:45:32;100849.00;;;34.60
12061;BMP180;6091;51.432;6.880;2022-08-21T13:48:01;100854.00;;;34.50
12061;BMP180;6091;51.432;6.880;2022-08-21T13:50:35;100850.00;;;34.40
12061;BMP180;6091;51.432;6.880;2022-08-21T13:53:07;100851.00;;;34.30
12061;BMP180;6091;51.432;6.880;2022-08-21T13:55:45;100853.00;;;34.20
12061;BMP180;6091;51.432;6.880;2022-08-21T13:58:12;100844.00;;;34.20
12061;BMP180;6091;51.432;6.880;2022-08-21T14:00:51;100855.00;;;34.10
12061;BMP180;6091;51.432;6.880;2022-08-21T14:03:38;100855.00;;;34.00
12061;BMP180;6091;51.432;6.880;2022-08-21T14:06:25;100861.00;;;33.90
12061;BMP180;6091;51.432;6.880;2022-08-21T14:09:01;100857.00;;;33.80
12061;BMP180;6091;51.432;6.880;2022-08-21T14:11:35;100854.00;;;33.70
12061;BMP180;6091;51.432;6.880;2022-08-21T14:14:22;100858.00;;;33.60
12061;BMP180;6091;51.432;6.880;2022-08-21T14:16:59;100850.00;;;33.60
12061;BMP180;6091;51.432;6.880;2022-08-21T14:19:42;100859.00;;;33.50
12061;BMP180;6091;51.432;6.880;2022-08-21T14:22:46;100850.00;;;33.40
12061;BMP180;6091;51.432;6.880;2022-08-21T14:25:31;100857.00;;;33.40
12061;BMP180;6091;51.432;6.880;2022-08-21T14:28:29;100854.00;;;33.30
12061;BMP180;6091;51.432;6.880;2022-08-21T14:31:19;100845.00;;;33.30
12061;BMP180;6091;51.432;6.880;2022-08-21T14:33:48;100844.00;;;33.20
12061;BMP180;6091;51.432;6.880;2022-08-21T14:36:15;100848.00;;;33.20
12061;BMP180;6091;51.432;6.880;2022-08-21T14:38:42;100852.00;;;33.20
12061;BMP180;6091;51.432;6.880;2022-08-21T14:41:21;100847.00;;;33.20
12061;BMP180;6091;51.432;6.880;2022-08-21T14:43:51;100844.00;;;33.20
12061;BMP180;6091;51.432;6.880;2022-08-21T14:46:35;100838.00;;;33.20
12061;BMP180;6091;51.432;6.880;2022-08-21T14:49:27;100839.00;;;33.20
12061;BMP180;6091;51.432;6.880;2022-08-21T14:51:58;100834.00;;;33.30
12061;BMP180;6091;51.432;6.880;2022-08-21T14:54:31;100838.00;;;33.20
12061;BMP180;6091;51.432;6.880;2022-08-21T14:57:05;100828.00;;;33.30
12061;BMP180;6091;51.432;6.880;2022-08-21T14:59:36;100832.00;;;33.30
12061;BMP180;6091;51.432;6.880;2022-08-21T15:02:10;100830.00;;;33.40
12061;BMP180;6091;51.432;6.880;2022-08-21T15:04:37;100831.00;;;33.40
12061;BMP180;6091;51.432;6.880;2022-08-21T15:07:04;100838.00;;;33.40
12061;BMP180;6091;51.432;6.880;2022-08-21T15:09:31;100836.00;;;33.40
12061;BMP180;6091;51.432;6.880;2022-08-21T15:12:01;100839.00;;;33.20
12061;BMP180;6091;51.432;6.880;2022-08-21T15:14:33;100835.00;;;33.30
12061;BMP180;6091;51.432;6.880;2022-08-21T15:17:01;100824.00;;;33.20
12061;BMP180;6091;51.432;6.880;2022-08-21T15:19:30;100830.00;;;33.20
12061;BMP180;6091;51.432;6.880;2022-08-21T15:21:57;100827.00;;;33.20
12061;BMP180;6091;51.432;6.880;2022-08-21T15:24:25;100827.00;;;33.10
12061;BMP180;6091;51.432;6.880;2022-08-21T15:26:55;100822.00;;;33.10
12061;BMP180;6091;51.432;6.880;2022-08-21T15:29:23;100830.00;;;33.20
12061;BMP180;6091;51.432;6.880;2022-08-21T15:31:58;100825.00;;;33.20
12061;BMP180;6091;51.432;6.880;2022-08-21T15:34:28;100834.00;;;33.30
12061;BMP180;6091;51.432;6.880;2022-08-21T15:36:58;100827.00;;;33.30
12061;BMP180;6091;51.432;6.880;2022-08-21T15:39:28;100819.00;;;33.30
12061;BMP180;6091;51.432;6.880;2022-08-21T15:41:58;100825.00;;;33.40
12061;BMP180;6091;51.432;6.880;2022-08-21T15:44:34;100831.00;;;33.40
12061;BMP180;6091;51.432;6.880;2022-08-21T15:47:01;100833.00;;;33.40
12061;BMP180;6091;51.432;6.880;2022-08-21T15:49:29;100828.00;;;33.40
12061;BMP180;6091;51.432;6.880;2022-08-21T15:51:58;100823.00;;;33.40
12061;BMP180;6091;51.432;6.880;2022-08-21T15:54:25;100824.00;;;33.30